Time;durP1;ratioP1;P1;durP2;ratioP2;P2;SDS_P1;SDS_P2;PMS_P1;PMS_P2;Temp;Humidity;BMP_temperature;BMP_pressure;BME280_temperature;BME280_humidity;BME280_pressure;Samples;Min_cycle;Max_cycle;Signal;HPM_P1;HPM_P2
2020/12/07 00:06:09;;;;;;;1999.90;999.90;;;;;;;8.88;72.44;99518.03;15852243;28;20143;-63
2020/12/07 00:13:42;;;;;;;1999.90;999.90;;;;;;;8.84;72.41;99530.19;15876746;28;20043;-63
2020/12/07 00:21:15;;;;;;;1999.90;999.90;;;;;;;8.90;72.06;99526.03;15856052;28;20089;-62
2020/12/07 00:28:50;;;;;;;1999.90;999.90;;;;;;;8.76;72.27;99506.94;15859876;28;20345;-62
2020/12/07 00:36:25;;;;;;;1999.90;999.90;;;;;;;8.78;72.44;99509.38;15877376;28;20047;-62
2020/12/07 00:43:57;;;;;;;1999.90;999.90;;;;;;;8.48;73.33;99494.91;15858957;28;20092;-62
2020/12/07 00:51:31;;;;;;;1999.90;999.90;;;;;;;8.55;73.38;99495.16;15858528;28;20044;-62
2020/12/07 00:59:04;;;;;;;1999.90;999.90;;;;;;;8.56;72.82;99485.66;15858724;28;20039;-62
2020/12/07 01:06:38;;;;;;;1999.90;999.90;;;;;;;8.48;73.24;99481.00;15856961;28;20035;-63
2020/12/07 01:14:14;;;;;;;1999.90;999.90;;;;;;;8.37;73.31;99478.72;15839851;28;20412;-63
2020/12/07 01:21:50;;;;;;;1999.90;999.90;;;;;;;8.52;72.93;99454.94;15840063;28;20043;-62
2020/12/07 01:29:23;;;;;;;1999.90;999.90;;;;;;;8.66;72.48;99449.84;15856389;28;20124;-63
2020/12/07 01:36:58;;;;;;;1999.90;999.90;;;;;;;8.61;72.57;99454.81;15856021;28;20408;-63
2020/12/07 01:44:33;;;;;;;1999.90;999.90;;;;;;;8.60;72.75;99440.09;15855767;28;20400;-61
2020/12/07 01:52:08;;;;;;;1999.90;999.90;;;;;;;8.79;72.01;99431.13;15837965;28;20054;-62
2020/12/07 01:59:41;;;;;;;;;;;;;;;9.01;71.32;99413.09;15854593;28;20404;-62
2020/12/07 02:07:19;;;;;;;1999.90;999.90;;;;;;;9.08;71.10;99410.53;15828167;28;20344;-63
2020/12/07 02:14:56;;;;;;;1999.90;999.90;;;;;;;9.20;70.94;99404.91;15821971;28;20046;-63
2020/12/07 02:22:30;;;;;;;1999.90;999.90;;;;;;;9.40;69.89;99399.44;15817004;28;20046;-63
2020/12/07 02:30:16;;;;;;;1999.90;999.90;;;;;;;9.50;69.87;99404.50;15852565;28;20438;-63
2020/12/07 02:37:50;;;;;;;1999.90;999.90;;;;;;;9.61;69.24;99394.44;15852547;28;20082;-63
2020/12/07 02:45:27;;;;;;;1999.90;999.90;;;;;;;9.85;68.37;99393.44;15851843;28;20572;-63
2020/12/07 02:53:08;;;;;;;1999.90;999.90;;;;;;;9.88;68.20;99397.50;15834970;28;20495;-62
2020/12/07 03:00:43;;;;;;;1999.90;999.90;;;;;;;9.78;68.24;99405.22;15850965;28;20405;-62
2020/12/07 03:08:20;;;;;;;1999.90;999.90;;;;;;;9.81;67.83;99390.59;15833987;28;20146;-61
2020/12/07 03:15:56;;;;;;;1999.90;999.90;;;;;;;9.90;67.42;99420.22;15848099;28;20071;-63
2020/12/07 03:23:33;;;;;;;1999.90;999.90;;;;;;;9.80;67.54;99416.84;15850550;28;20040;-63
2020/12/07 03:31:14;;;;;;;1999.90;999.90;;;;;;;9.78;67.33;99399.66;15831628;28;20044;-63
2020/12/07 03:38:48;;;;;;;1999.90;999.90;;;;;;;9.83;67.44;99410.53;15868247;28;20044;-62
2020/12/07 03:46:20;;;;;;;1999.90;999.90;;;;;;;9.74;67.23;99414.66;15848872;28;20138;-63
2020/12/07 03:53:56;;;;;;;1999.90;999.90;;;;;;;9.70;67.35;99394.28;15832132;28;20119;-62
2020/12/07 04:01:29;;;;;;;1999.90;999.90;;;;;;;9.61;67.38;99386.09;15832344;28;20043;-62
2020/12/07 04:09:03;;;;;;;1999.90;999.90;;;;;;;9.58;67.15;99403.50;15848654;28;20093;-62
2020/12/07 04:16:36;;;;;;;;;;;;;;;9.65;67.10;99375.84;15849247;28;20100;-62
2020/12/07 04:24:09;;;;;;;1999.90;999.90;;;;;;;9.51;66.74;99387.44;15865845;28;19919;-63
2020/12/07 04:31:41;;;;;;;1999.90;999.90;;;;;;;9.62;66.47;99392.47;15847733;28;20040;-63
2020/12/07 04:39:15;;;;;;;1999.90;999.90;;;;;;;9.48;66.93;99376.19;15865690;28;20146;-62
2020/12/07 04:46:49;;;;;;;1999.90;999.90;;;;;;;9.48;66.50;99385.38;15858352;28;20074;-61
2020/12/07 04:54:22;;;;;;;1999.90;999.90;;;;;;;9.35;66.84;99392.16;15858702;28;20408;-61
2020/12/07 05:01:55;;;;;;;1999.90;999.90;;;;;;;9.20;66.85;99382.63;15875699;28;20035;-63
2020/12/07 05:09:30;;;;;;;1999.90;999.90;;;;;;;9.13;66.95;99403.88;15815606;28;20075;-63
2020/12/07 05:17:02;;;;;;;1999.90;999.90;;;;;;;9.20;66.47;99402.09;15863004;28;20050;-63
2020/12/07 05:24:36;;;;;;;1999.90;999.90;;;;;;;9.16;66.41;99414.28;15809310;28;20044;-63
2020/12/07 05:32:08;;;;;;;1999.90;999.90;;;;;;;9.11;66.55;99420.94;15856065;28;20036;-63
2020/12/07 05:39:42;;;;;;;1999.90;999.90;;;;;;;8.97;66.87;99440.00;15855656;28;20078;-61
2020/12/07 05:47:19;;;;;;;1999.90;999.90;;;;;;;8.90;66.83;99418.34;15855163;28;20044;-63
2020/12/07 05:54:55;;;;;;;1999.90;999.90;;;;;;;8.88;66.84;99414.31;15854260;28;20032;-63
2020/12/07 06:02:28;;;;;;;1999.90;999.90;;;;;;;8.71;67.20;99434.06;15873071;27;20473;-62
2020/12/07 06:10:03;;;;;;;1999.90;999.90;;;;;;;8.75;66.88;99449.66;15853464;28;20051;-62
2020/12/07 06:17:35;;;;;;;1999.90;999.90;;;;;;;8.75;66.74;99462.75;15871487;28;20044;-62
2020/12/07 06:25:11;;;;;;;1999.90;999.90;;;;;;;8.59;67.28;99471.84;15872257;28;20040;-63
2020/12/07 06:32:49;;;;;;;1999.90;999.90;;;;;;;8.61;67.05;99483.41;15852278;28;20122;-63
2020/12/07 06:40:24;;;;;;;1999.90;999.90;;;;;;;8.65;67.25;99483.56;15840245;28;20069;-63
2020/12/07 06:48:06;;;;;;;1999.90;999.90;;;;;;;8.53;67.30;99501.03;15869541;28;20054;-63
2020/12/07 06:55:44;;;;;;;1999.90;999.90;;;;;;;8.42;67.76;99497.09;15851595;28;20222;-61
2020/12/07 07:03:23;;;;;;;;;;;;;;;8.47;67.61;99496.06;15869631;28;20111;-62
2020/12/07 07:11:03;;;;;;;1999.90;999.90;;;;;;;8.38;67.62;99496.19;15850965;28;19919;-62
2020/12/07 07:18:36;;;;;;;1999.90;999.90;;;;;;;8.29;67.87;99495.47;15850182;28;20159;-58
2020/12/07 07:26:18;;;;;;;1999.90;999.90;;;;;;;8.36;67.94;99520.75;15837229;28;20048;-59
2020/12/07 07:33:51;;;;;;;1999.90;999.90;;;;;;;8.58;67.38;99511.13;15850343;28;20093;-60
2020/12/07 07:41:26;;;;;;;1999.90;999.90;;;;;;;8.34;67.86;99509.97;15868184;28;20035;-61
2020/12/07 07:49:13;;;;;;;1999.90;999.90;;;;;;;8.37;68.00;99516.81;15868346;28;20096;-63
2020/12/07 08:20:49;;;;;;;1999.90;999.90;;;;;;;8.45;67.74;99549.25;15857358;28;20416;-55
2020/12/07 08:28:29;;;;;;;1999.90;999.90;;;;;;;8.74;67.16;99553.72;15861377;28;20096;-58
2020/12/07 08:36:04;;;;;;;1999.90;999.90;;;;;;;8.66;67.45;99552.72;15877872;28;20035;-58
2020/12/07 08:43:43;;;;;;;1999.90;999.90;;;;;;;8.70;67.30;99557.56;15877666;28;20048;-55
2020/12/07 08:51:19;;;;;;;1999.90;999.90;;;;;;;8.95;66.98;99564.72;15877178;28;20271;-56
2020/12/07 08:58:53;;;;;;;1999.90;999.90;;;;;;;8.68;67.44;99553.19;15875288;27;20043;-54
2020/12/07 09:06:26;;;;;;;1999.90;999.90;;;;;;;8.75;67.30;99576.78;15920845;27;20125;-56
2020/12/07 09:13:59;;;;;;;1999.90;999.90;;;;;;;8.88;67.07;99554.19;15899809;27;20398;-54
2020/12/07 09:21:35;;;;;;;1999.90;999.90;;;;;;;9.00;66.70;99574.81;15876643;28;20050;-58
2020/12/07 09:29:09;;;;;;;1999.90;999.90;;;;;;;9.12;66.77;99572.81;15874992;28;20047;-58
2020/12/07 09:36:42;;;;;;;1999.90;999.90;;;;;;;9.05;66.75;99597.63;15873381;28;20036;-59
2020/12/07 09:44:15;;;;;;;1999.90;999.90;;;;;;;9.05;66.92;99586.50;15854825;28;20062;-57
2020/12/07 09:51:48;;;;;;;1999.90;999.90;;;;;;;8.97;67.17;99601.38;15854705;28;20039;-61
2020/12/07 09:59:22;;;;;;;1999.90;999.90;;;;;;;9.07;67.12;99600.91;15873021;28;20077;-58
2020/12/07 10:06:55;;;;;;;1999.90;999.90;;;;;;;9.10;66.86;99597.41;15873240;28;20044;-60
2020/12/07 10:14:28;;;;;;;1999.90;999.90;;;;;;;8.99;67.09;99607.41;15872773;28;20048;-60
2020/12/07 10:22:03;;;;;;;1999.90;999.90;;;;;;;8.95;67.44;99598.91;15850632;27;20051;-60
2020/12/07 10:29:37;;;;;;;1999.90;999.90;;;;;;;8.96;67.28;99614.47;15837899;28;20044;-58
2020/12/07 10:37:10;;;;;;;1999.90;999.90;;;;;;;9.07;67.15;99609.25;15870546;28;20390;-57
2020/12/07 10:44:44;;;;;;;;;;;;;;;9.39;66.69;99620.56;15871727;28;20043;-60
2020/12/07 10:52:17;;;;;;;1999.90;999.90;;;;;;;9.02;67.43;99628.13;15872089;28;19972;-60
2020/12/07 10:59:51;;;;;;;1999.90;999.90;;;;;;;9.18;66.91;99654.94;15872111;28;20576;-57
2020/12/07 11:07:25;;;;;;;1999.90;999.90;;;;;;;9.19;66.60;99666.88;15852789;28;20043;-59
2020/12/07 11:14:59;;;;;;;1999.90;999.90;;;;;;;9.37;66.39;99672.97;15870579;28;20516;-60
2020/12/07 11:22:31;;;;;;;1999.90;999.90;;;;;;;9.20;67.41;99677.66;15852792;28;20086;-58
2020/12/07 11:30:07;;;;;;;1999.90;999.90;;;;;;;9.30;67.61;99686.69;15869636;28;20036;-54
2020/12/07 11:37:40;;;;;;;1999.90;999.90;;;;;;;9.49;66.82;99684.13;15846755;28;20059;-57
2020/12/07 11:45:14;;;;;;;1999.90;999.90;;;;;;;9.41;67.35;99698.97;15860577;28;20063;-63
2020/12/07 11:52:46;;;;;;;1999.90;999.90;;;;;;;9.61;66.92;99688.84;15875674;28;20293;-61
2020/12/07 12:00:20;;;;;;;1999.90;999.90;;;;;;;9.73;67.44;99697.16;15849652;27;20082;-59
2020/12/07 12:07:53;;;;;;;1999.90;999.90;;;;;;;9.87;66.31;99699.56;15889697;27;20048;-58
2020/12/07 12:15:26;;;;;;;1999.90;999.90;;;;;;;9.80;66.91;99709.34;15853390;27;20031;-58
2020/12/07 12:22:59;;;;;;;1999.90;999.90;;;;;;;9.48;68.11;99739.00;15941815;27;20047;-55
2020/12/07 12:30:32;;;;;;;1999.90;999.90;;;;;;;9.19;68.54;99742.81;15882906;27;20043;-62
2020/12/07 12:38:05;;;;;;;1999.90;999.90;;;;;;;9.42;68.20;99750.72;15854787;27;20039;-56
2020/12/07 12:45:38;;;;;;;1999.90;999.90;;;;;;;9.71;66.56;99750.44;15919932;27;20062;-58
2020/12/07 12:53:11;;;;;;;1999.90;999.90;;;;;;;9.53;64.17;99769.38;15915881;27;20043;-58
2020/12/07 13:00:45;;;;;;;1999.90;999.90;;;;;;;9.59;62.31;99781.13;15855987;28;20049;-56
2020/12/07 13:08:19;;;;;;;1999.90;999.90;;;;;;;9.75;62.23;99795.94;15856676;28;20416;-60
2020/12/07 13:15:57;;;;;;;1999.90;999.90;;;;;;;10.05;61.36;99801.25;15856605;28;20039;-58
2020/12/07 13:23:34;;;;;;;1999.90;999.90;;;;;;;10.01;60.96;99801.13;15874422;27;20043;-57
2020/12/07 13:31:08;;;;;;;1999.90;999.90;;;;;;;9.68;60.26;99804.06;15865104;27;20094;-60
2020/12/07 13:38:41;;;;;;;1999.90;999.90;;;;;;;9.98;58.51;99803.78;15875421;27;20067;-57
2020/12/07 13:46:14;;;;;;;1999.90;999.90;;;;;;;10.06;57.45;99820.38;15935987;27;20051;-57
2020/12/07 13:53:47;;;;;;;1999.90;999.90;;;;;;;10.43;57.47;99830.69;15936853;27;20053;-57
2020/12/07 14:01:22;;;;;;;1999.90;999.90;;;;;;;10.59;56.81;99835.16;15918487;27;20492;-57
2020/12/07 14:08:57;;;;;;;1999.90;999.90;;;;;;;9.98;57.95;99848.38;15917980;27;20561;-56
2020/12/07 14:16:34;;;;;;;1999.90;999.90;;;;;;;9.78;59.54;99859.31;15917660;27;20039;-56
2020/12/07 14:24:11;;;;;;;1999.90;999.90;;;;;;;9.78;59.28;99858.50;15918488;27;20043;-57
2020/12/07 14:35:13;;;;;;;1999.90;999.90;;;;;;;9.52;59.84;99867.19;15867288;28;20127;-58
2020/12/07 14:40:09;;;;;;;1999.90;999.90;;;;;;;9.49;59.33;99874.28;15850738;27;20054;-60
2020/12/07 14:47:45;;;;;;;1999.90;999.90;;;;;;;9.51;59.28;99893.44;15847795;28;20464;-60
2020/12/07 14:55:27;;;;;;;1999.90;999.90;;;;;;;9.21;59.74;99912.25;15867537;28;20031;-58
2020/12/07 15:03:30;;;;;;;1999.90;999.90;;;;;;;9.21;59.87;99913.06;15841126;27;20101;-59
2020/12/07 15:11:28;;;;;;;1999.90;999.90;;;;;;;8.97;60.51;99926.91;15849268;28;20463;-59
2020/12/07 15:19:05;;;;;;;1999.90;999.90;;;;;;;8.79;60.96;99940.16;15868630;28;20074;-56
2020/12/07 15:26:38;;;;;;;1999.90;999.90;;;;;;;8.47;61.77;99927.81;15848613;28;20089;-57
2020/12/07 15:34:11;;;;;;;1999.90;999.90;;;;;;;8.37;62.02;99933.75;15850582;28;20043;-58
2020/12/07 15:41:44;;;;;;;;;;;;;;;8.25;62.25;99936.44;15850546;28;20055;-59
2020/12/07 15:49:19;;;;;;;1999.90;999.90;;;;;;;7.88;62.88;99952.78;15848637;28;19927;-57
2020/12/07 15:56:52;;;;;;;1999.90;999.90;;;;;;;7.49;63.68;99963.03;15848289;28;20084;-57
2020/12/07 16:04:25;;;;;;;1999.90;999.90;;;;;;;7.12;64.30;99980.44;15833376;28;20064;-62
2020/12/07 16:11:58;;;;;;;1999.90;999.90;;;;;;;6.88;64.91;99984.50;15847605;28;20067;-60
2020/12/07 16:19:31;;;;;;;1999.90;999.90;;;;;;;6.78;65.80;99973.75;15864790;28;20392;-57
2020/12/07 16:27:09;;;;;;;1999.90;999.90;;;;;;;6.48;66.04;99983.81;15863720;28;20036;-59
2020/12/07 16:34:42;;;;;;;1999.90;999.90;;;;;;;6.18;66.24;99991.09;15820229;28;20044;-62
2020/12/07 16:42:15;;;;;;;1999.90;999.90;;;;;;;6.16;66.27;99998.09;15859531;28;20492;-57
2020/12/07 16:49:49;;;;;;;1999.90;999.90;;;;;;;6.34;68.30;100003.34;15842822;28;20043;-57
2020/12/07 16:57:21;;;;;;;;;;;;;;;6.63;67.42;100011.06;15877699;27;20039;-58
2020/12/07 17:04:55;;;;;;;1999.90;999.90;;;;;;;6.07;66.85;100011.91;15853325;28;20024;-62
2020/12/07 17:12:28;;;;;;;1999.90;999.90;;;;;;;5.73;67.02;100021.66;15871151;28;20126;-58
2020/12/07 17:20:02;;;;;;;1999.90;999.90;;;;;;;5.58;67.20;100029.53;15847469;28;20047;-54
2020/12/07 17:27:35;;;;;;;1999.90;999.90;;;;;;;5.46;67.89;100044.75;15834698;28;20051;-56
2020/12/07 17:35:09;;;;;;;1999.90;999.90;;;;;;;5.31;70.07;100052.59;15827601;28;20548;-57
2020/12/07 17:42:41;;;;;;;;;;;;;;;5.45;68.14;100059.72;15855059;28;20474;-54
2020/12/07 17:50:15;;;;;;;1999.90;999.90;;;;;;;5.03;68.60;100057.44;15855747;28;19920;-53
2020/12/07 17:57:48;;;;;;;1999.90;999.90;;;;;;;4.91;70.50;100060.75;15873529;28;20493;-56
2020/12/07 18:05:21;;;;;;;1999.90;999.90;;;;;;;5.10;69.14;100075.22;15846989;28;20039;-55
2020/12/07 18:12:54;;;;;;;1999.90;999.90;;;;;;;4.97;69.15;100076.09;15866171;28;20489;-56
2020/12/07 18:20:27;;;;;;;1999.90;999.90;;;;;;;5.06;70.06;100090.81;15853003;28;20047;-56
2020/12/07 18:28:00;;;;;;;1999.90;999.90;;;;;;;5.02;68.96;100108.34;15852980;28;20043;-58
2020/12/07 18:35:34;;;;;;;1999.90;999.90;;;;;;;5.11;70.57;100112.00;15857828;27;20092;-56
2020/12/07 18:43:06;;;;;;;1999.90;999.90;;;;;;;5.34;70.22;100101.81;15870015;28;20489;-58
2020/12/07 18:50:40;;;;;;;1999.90;999.90;;;;;;;5.58;70.19;100112.56;15868829;28;20039;-59
2020/12/07 18:58:12;;;;;;;1999.90;999.90;;;;;;;5.77;69.43;100116.78;15868166;28;20044;-57
2020/12/07 19:05:47;;;;;;;1999.90;999.90;;;;;;;5.90;69.03;100108.69;15868360;28;20043;-58
2020/12/07 19:13:22;;;;;;;1999.90;999.90;;;;;;;5.74;69.35;100120.19;15863212;28;20069;-60
2020/12/07 19:20:56;;;;;;;1999.90;999.90;;;;;;;5.97;68.59;100126.53;15867958;28;20047;-57
2020/12/07 19:28:28;;;;;;;1999.90;999.90;;;;;;;5.93;69.80;100131.06;15851058;28;20071;-58
2020/12/07 19:36:05;;;;;;;1999.90;999.90;;;;;;;6.12;69.41;100133.63;15832150;28;20080;-57
2020/12/07 19:43:37;;;;;;;;;;;;;;;6.20;69.38;100141.16;15848000;28;20042;-58
2020/12/07 19:51:11;;;;;;;1999.90;999.90;;;;;;;6.20;69.04;100141.16;15847126;28;20319;-58
2020/12/07 19:58:43;;;;;;;1999.90;999.90;;;;;;;6.47;68.98;100144.91;15864477;28;20044;-59
2020/12/07 20:06:24;;;;;;;1999.90;999.90;;;;;;;6.36;69.62;100147.94;15864657;28;20554;-58
2020/12/07 20:13:57;;;;;;;1999.90;999.90;;;;;;;6.40;69.69;100139.81;15854563;28;20040;-61
2020/12/07 20:21:30;;;;;;;1999.90;999.90;;;;;;;6.56;68.60;100148.50;15842985;28;20558;-60
2020/12/07 20:29:03;;;;;;;1999.90;999.90;;;;;;;6.51;69.45;100151.44;15842782;28;20048;-59
2020/12/07 20:36:36;;;;;;;1999.90;999.90;;;;;;;6.47;68.56;100147.66;15859831;28;20100;-58
2020/12/07 20:44:10;;;;;;;1999.90;999.90;;;;;;;6.18;69.39;100150.94;15858721;28;20462;-59
2020/12/07 20:51:44;;;;;;;1999.90;999.90;;;;;;;5.80;70.49;100148.53;15877115;28;20382;-60
2020/12/07 20:59:17;;;;;;;1999.90;999.90;;;;;;;6.03;69.57;100160.44;15876595;28;20484;-60
2020/12/07 21:06:52;;;;;;;1999.90;999.90;;;;;;;5.89;70.09;100170.75;15856507;28;20047;-62
2020/12/07 21:14:25;;;;;;;1999.90;999.90;;;;;;;5.96;70.70;100185.03;15875524;28;20040;-59
2020/12/07 21:21:59;;;;;;;;;;;;;;;6.24;69.26;100175.41;15863885;28;20043;-60
2020/12/07 21:29:31;;;;;;;1999.90;999.90;;;;;;;6.21;69.44;100175.22;15854054;28;20023;-54
2020/12/07 21:37:05;;;;;;;1999.90;999.90;;;;;;;6.14;69.85;100189.50;15855691;28;20059;-58
2020/12/07 21:44:38;;;;;;;1999.90;999.90;;;;;;;6.23;69.77;100186.81;15874192;28;20043;-58
2020/12/07 21:52:11;;;;;;;1999.90;999.90;;;;;;;6.20;70.04;100193.00;15874001;28;20035;-56
2020/12/07 21:59:45;;;;;;;1999.90;999.90;;;;;;;6.23;69.79;100187.63;15854845;28;20100;-58
2020/12/07 22:07:21;;;;;;;1999.90;999.90;;;;;;;6.38;70.03;100175.34;15854541;28;20134;-58
2020/12/07 22:14:54;;;;;;;1999.90;999.90;;;;;;;6.44;69.48;100174.03;15876268;28;20462;-55
2020/12/07 22:22:27;;;;;;;1999.90;999.90;;;;;;;6.18;69.77;100168.38;15877740;28;20055;-56
2020/12/07 22:30:01;;;;;;;1999.90;999.90;;;;;;;5.98;71.78;100182.75;15854147;28;20333;-59
2020/12/07 22:37:34;;;;;;;1999.90;999.90;;;;;;;6.12;71.49;100172.41;15835972;28;20044;-59
2020/12/07 22:45:07;;;;;;;1999.90;999.90;;;;;;;5.91;71.56;100152.72;15870404;28;20032;-58
2020/12/07 22:52:41;;;;;;;1999.90;999.90;;;;;;;5.80;72.12;100151.31;15851706;28;20086;-60
2020/12/07 23:00:16;;;;;;;1999.90;999.90;;;;;;;5.85;73.02;100155.91;15851558;28;20043;-57
2020/12/07 23:07:49;;;;;;;1999.90;999.90;;;;;;;6.23;72.09;100162.69;15809482;28;20050;-58
2020/12/07 23:15:22;;;;;;;1999.90;999.90;;;;;;;6.64;70.10;100170.72;15869592;28;20100;-57
2020/12/07 23:22:56;;;;;;;1999.90;999.90;;;;;;;6.76;70.13;100161.78;15869161;28;20132;-56
2020/12/07 23:30:29;;;;;;;;;;;;;;;6.72;70.25;100146.94;15868515;28;20408;-60
2020/12/07 23:38:03;;;;;;;1999.90;999.90;;;;;;;6.78;70.32;100144.84;15849605;28;19919;-54
2020/12/07 23:45:37;;;;;;;1999.90;999.90;;;;;;;6.89;69.97;100135.91;15848713;28;20093;-59
2020/12/07 23:53:12;;;;;;;1999.90;999.90;;;;;;;6.88;69.96;100137.06;15849113;28;20047;-54
